createdAt,value
2023-01-18T00:29:47.503Z,0
2023-01-18T00:30:27.637Z,0
2023-01-18T00:31:08.146Z,0
2023-01-18T00:35:51.770Z,0
2023-01-18T00:36:32.267Z,0
2023-01-18T00:37:12.860Z,0
2023-01-18T00:37:53.295Z,0
2023-01-18T00:38:33.793Z,0
2023-01-18T00:39:14.239Z,0
2023-01-18T00:39:54.774Z,0
2023-01-18T00:40:35.976Z,0
2023-01-18T00:41:16.481Z,0
2023-01-18T00:48:42.036Z,0
2023-01-18T00:49:22.479Z,0
2023-01-18T00:50:02.969Z,0
2023-01-18T00:50:43.458Z,0
2023-01-18T00:51:23.974Z,0
2023-01-18T00:52:04.513Z,0
2023-01-18T00:54:44.149Z,0
2023-01-18T00:55:24.682Z,0
2023-01-18T00:56:05.336Z,0
2023-01-18T00:58:58.469Z,0
2023-01-18T00:59:38.969Z,0
2023-01-18T01:00:19.435Z,0
2023-01-18T01:06:23.960Z,0
2023-01-18T01:07:04.415Z,0
2023-01-18T01:07:44.916Z,0
2023-01-18T01:08:25.426Z,0
2023-01-18T01:10:43.433Z,0
2023-01-18T01:11:23.938Z,0
2023-01-18T01:12:04.417Z,0
2023-01-18T01:17:28.442Z,0
2023-01-18T01:18:08.920Z,0
2023-01-18T01:18:49.394Z,0
2023-01-18T01:19:29.928Z,0
2023-01-18T01:20:10.420Z,0
2023-01-18T01:20:50.890Z,0
2023-01-18T01:21:31.422Z,0
2023-01-18T01:22:11.932Z,0
2023-01-18T01:22:52.448Z,0
2023-01-18T01:23:32.952Z,0
2023-01-18T01:30:58.452Z,0
2023-01-18T01:31:38.911Z,0
2023-01-18T01:32:19.367Z,0
2023-01-18T01:35:58.516Z,0
2023-01-18T01:36:38.953Z,0
2023-01-18T01:37:19.460Z,0
2023-01-18T01:42:03.173Z,0
2023-01-18T01:42:43.649Z,0
2023-01-18T01:43:24.173Z,0
2023-01-18T01:44:04.677Z,0
2023-01-18T01:44:45.170Z,0
2023-01-18T01:45:25.698Z,0
2023-01-18T01:46:06.250Z,0
2023-01-18T01:46:46.771Z,0
2023-01-18T01:47:27.253Z,0
2023-01-18T01:48:07.771Z,0
2023-01-18T01:55:33.238Z,0
2023-01-18T01:56:13.756Z,0
2023-01-18T01:56:54.240Z,0
2023-01-18T01:57:34.748Z,0
2023-01-18T01:58:15.205Z,0
2023-01-18T01:58:55.693Z,0
2023-01-18T01:59:36.160Z,0
2023-01-18T02:00:16.682Z,0
2023-01-18T02:00:57.185Z,0
2023-01-18T02:01:37.794Z,0
2023-01-18T02:08:23.399Z,0
2023-01-18T02:09:03.878Z,0
2023-01-18T02:09:44.385Z,0
2023-01-18T02:10:24.899Z,0
2023-01-18T02:11:05.403Z,0
2023-01-18T02:11:45.914Z,0
2023-01-18T02:12:26.418Z,0
2023-01-18T02:13:06.904Z,0
2023-01-18T02:13:47.375Z,0
2023-01-18T02:14:27.888Z,0
2023-01-18T02:21:53.400Z,0
2023-01-18T02:22:33.854Z,0
2023-01-18T02:23:14.376Z,0
2023-01-18T02:23:54.872Z,0
2023-01-18T02:24:35.339Z,0
2023-01-18T02:25:15.934Z,0
2023-01-18T02:25:56.414Z,0
2023-01-18T02:26:36.960Z,0
2023-01-18T02:27:17.374Z,0
2023-01-18T02:27:57.859Z,0
2023-01-18T02:35:23.192Z,0
2023-01-18T02:36:03.653Z,0
2023-01-18T02:36:44.154Z,0
2023-01-18T02:37:24.653Z,0
2023-01-18T02:38:05.203Z,0
2023-01-18T02:38:45.620Z,0
2023-01-18T02:39:26.124Z,0
2023-01-18T02:40:06.564Z,0
2023-01-18T02:40:47.052Z,0
2023-01-18T02:41:27.566Z,0
2023-01-18T02:42:08.023Z,0
2023-01-18T02:49:33.490Z,0
2023-01-18T02:50:14.018Z,0
2023-01-18T02:50:54.475Z,0
2023-01-18T02:51:34.973Z,0
2023-01-18T02:52:15.445Z,0
2023-01-18T02:52:56.365Z,0
2023-01-18T02:53:36.456Z,0
2023-01-18T02:54:16.973Z,0
2023-01-18T02:54:57.479Z,0
2023-01-18T03:03:03.400Z,0
2023-01-18T03:06:42.420Z,0
2023-01-18T03:07:22.904Z,0
2023-01-18T03:08:03.395Z,0
2023-01-18T03:13:27.397Z,0
2023-01-18T03:14:07.909Z,0
2023-01-18T03:14:48.427Z,0
2023-01-18T03:15:29.043Z,0
2023-01-18T03:16:09.472Z,0
2023-01-18T03:16:49.931Z,0
2023-01-18T03:17:30.403Z,0
2023-01-18T03:18:10.909Z,0
2023-01-18T03:18:51.424Z,0
2023-01-18T03:19:32.085Z,0
2023-01-18T03:26:17.078Z,0
2023-01-18T03:26:57.569Z,0
2023-01-18T03:27:38.029Z,0
2023-01-18T03:28:18.518Z,0
2023-01-18T03:29:39.502Z,0
2023-01-18T03:30:20.019Z,0
2023-01-18T03:31:00.559Z,0
2023-01-18T03:31:41.076Z,0
2023-01-18T03:34:59.847Z,0
2023-01-18T03:35:40.316Z,0
2023-01-18T03:36:20.785Z,0
2023-01-18T03:41:04.799Z,0
2023-01-18T03:41:45.295Z,0
2023-01-18T03:42:25.798Z,0
2023-01-18T03:43:06.265Z,0
2023-01-18T03:43:46.764Z,0
2023-01-18T03:47:26.354Z,0
2023-01-18T03:48:06.873Z,0
2023-01-18T03:48:47.338Z,0
2023-01-18T03:54:11.364Z,0
2023-01-18T03:57:52.547Z,0
2023-01-18T03:58:33.539Z,0
2023-01-18T03:59:14.541Z,0
2023-01-18T03:59:55.527Z,0
2023-01-18T04:00:36.540Z,0
2023-01-18T04:01:17.565Z,0
2023-01-18T04:01:59.174Z,0
2023-01-18T04:02:40.252Z,0
2023-01-18T04:06:46.249Z,0
2023-01-18T04:07:27.419Z,0
2023-01-18T04:08:08.408Z,0
2023-01-18T04:08:49.363Z,0
2023-01-18T04:09:30.371Z,0
2023-01-18T04:12:55.550Z,0
2023-01-18T04:13:36.654Z,0
2023-01-18T04:14:17.694Z,0
2023-01-18T04:14:58.848Z,0
2023-01-18T04:15:39.845Z,0
2023-01-18T04:19:46.069Z,0
2023-01-18T04:20:27.084Z,0
2023-01-18T04:21:08.169Z,0
2023-01-18T04:21:49.279Z,0
2023-01-18T04:22:30.349Z,0
2023-01-18T04:25:56.018Z,0
2023-01-18T04:26:37.065Z,0
2023-01-18T04:27:18.043Z,0
2023-01-18T04:27:59.026Z,0
2023-01-18T04:28:40.032Z,0
2023-01-18T04:32:46.084Z,0
2023-01-18T04:33:27.044Z,0
2023-01-18T04:34:08.042Z,0
2023-01-18T04:34:49.047Z,0
2023-01-18T04:35:30.023Z,0
2023-01-18T04:39:36.215Z,0
2023-01-18T04:40:17.220Z,0
2023-01-18T04:40:58.214Z,0
2023-01-18T04:41:39.256Z,0
2023-01-18T04:42:20.297Z,0
2023-01-18T04:46:26.419Z,0
2023-01-18T04:47:07.371Z,0
2023-01-18T04:47:48.353Z,0
2023-01-18T04:48:29.353Z,0
2023-01-18T04:49:10.341Z,0
2023-01-18T04:53:16.454Z,0
2023-01-18T04:53:57.414Z,0
2023-01-18T04:57:16.654Z,0
2023-01-18T04:57:57.176Z,0
2023-01-18T05:01:31.306Z,0
2023-01-18T05:02:11.763Z,0
2023-01-18T05:02:52.181Z,0
2023-01-18T05:09:28.398Z,0
2023-01-18T05:10:09.071Z,0
2023-01-18T05:10:49.609Z,0
2023-01-18T05:15:33.137Z,0
2023-01-18T05:16:13.630Z,0
2023-01-18T05:16:54.096Z,0
2023-01-18T05:17:34.637Z,0
2023-01-18T05:18:15.057Z,0
2023-01-18T05:18:55.556Z,0
2023-01-18T05:19:36.425Z,0
2023-01-18T05:20:16.950Z,0
2023-01-18T05:20:57.437Z,0
2023-01-18T05:21:37.988Z,0
2023-01-18T05:28:23.014Z,0
2023-01-18T05:29:03.560Z,0
2023-01-18T05:29:44.046Z,0
2023-01-18T05:30:24.538Z,0
2023-01-18T05:31:05.150Z,0
2023-01-18T05:31:45.630Z,0
2023-01-18T05:32:26.029Z,0
2023-01-18T05:33:06.544Z,0
2023-01-18T05:33:47.123Z,0
2023-01-18T05:34:27.638Z,0
2023-01-18T05:40:33.825Z,0
2023-01-18T05:41:14.294Z,0
2023-01-18T05:41:54.750Z,0
2023-01-18T05:42:35.271Z,0
2023-01-18T05:43:15.838Z,0
2023-01-18T05:43:56.357Z,0
2023-01-18T05:44:36.816Z,0
2023-01-18T05:45:17.383Z,0
2023-01-18T05:45:57.954Z,0
2023-01-18T06:32:29.764Z,0
2023-01-18T06:33:10.573Z,0
2023-01-18T06:33:51.669Z,0
2023-01-18T06:34:32.774Z,0
2023-01-18T06:35:13.798Z,0
2023-01-18T06:35:54.960Z,0
2023-01-18T06:36:35.940Z,0
2023-01-18T06:37:17.401Z,0
2023-01-18T06:44:17.403Z,0
2023-01-18T06:44:59.187Z,0
2023-01-18T06:48:28.593Z,0
2023-01-18T06:49:09.686Z,0
2023-01-18T06:49:50.427Z,0
2023-01-18T06:51:52.939Z,0
2023-01-18T06:52:34.569Z,0
2023-01-18T06:53:15.120Z,0
2023-01-18T06:53:57.074Z,0
2023-01-18T06:55:26.935Z,0
2023-01-18T06:56:07.532Z,0
2023-01-18T07:00:50.922Z,0
2023-01-18T07:04:44.658Z,0
2023-01-18T07:08:20.171Z,0
2023-01-18T07:09:04.758Z,0
2023-01-18T07:09:45.672Z,0
2023-01-18T07:13:16.113Z,0
2023-01-18T07:13:59.005Z,0
2023-01-18T07:14:39.686Z,0
2023-01-18T07:16:01.322Z,0
2023-01-18T07:16:42.336Z,0
2023-01-18T07:17:22.791Z,0
2023-01-18T07:18:03.433Z,0
2023-01-18T07:18:44.500Z,0
2023-01-18T07:19:24.494Z,0
2023-01-18T07:20:05.030Z,0
2023-01-18T07:24:10.518Z,0
2023-01-18T07:24:51.093Z,0
2023-01-18T07:25:33.006Z,0
2023-01-18T07:26:13.418Z,0
2023-01-18T07:26:54.432Z,0
2023-01-18T07:27:35.452Z,0
2023-01-18T07:31:40.419Z,0
2023-01-18T07:32:20.937Z,0
2023-01-18T07:33:01.795Z,0
2023-01-18T07:33:42.417Z,0
2023-01-18T07:34:23.043Z,0
2023-01-18T07:37:42.220Z,0
2023-01-18T07:41:12.579Z,0
2023-01-18T07:41:53.211Z,0
2023-01-18T07:42:33.820Z,0
2023-01-18T07:45:57.044Z,0
2023-01-18T07:46:38.273Z,0
2023-01-18T07:47:18.836Z,0
2023-01-18T07:47:59.461Z,0
2023-01-18T07:48:39.993Z,0
2023-01-18T07:49:20.752Z,5
2023-01-18T07:50:01.439Z,5
2023-01-18T07:56:07.490Z,5
2023-01-18T07:56:49.486Z,5
2023-01-18T07:57:29.836Z,5
2023-01-18T07:58:10.485Z,5
2023-01-18T07:58:51.127Z,5
2023-01-18T07:59:31.687Z,5
2023-01-18T08:04:17.307Z,5
2023-01-18T08:04:58.025Z,5
2023-01-18T08:05:38.583Z,5
2023-01-18T08:06:19.351Z,5
2023-01-18T08:07:00.279Z,5
2023-01-18T08:07:40.834Z,5
2023-01-18T08:08:21.511Z,5
2023-01-18T08:14:59.347Z,10
2023-01-18T08:15:40.079Z,10
2023-01-18T08:16:20.853Z,10
2023-01-18T08:22:18.360Z,10
2023-01-18T08:22:59.357Z,10
2023-01-18T08:23:39.963Z,10
2023-01-18T08:25:42.532Z,10
2023-01-18T08:26:23.096Z,10
2023-01-18T08:27:03.666Z,10
2023-01-18T08:33:53.739Z,15
2023-01-18T08:34:35.237Z,15
2023-01-18T08:35:16.373Z,15
2023-01-18T08:35:57.749Z,15
2023-01-18T08:36:38.924Z,15
2023-01-18T08:37:20.419Z,15
2023-01-18T08:41:28.643Z,15
2023-01-18T08:45:09.704Z,15
2023-01-18T08:45:51.631Z,15
2023-01-18T08:46:32.872Z,15
2023-01-18T08:47:14.417Z,15
2023-01-18T08:47:55.524Z,15
2023-01-18T08:50:04.741Z,15
2023-01-18T08:50:46.024Z,15
2023-01-18T08:51:27.159Z,15
2023-01-18T08:52:08.549Z,15
2023-01-18T08:54:14.910Z,15
2023-01-18T08:54:56.179Z,15
2023-01-18T08:55:37.481Z,15
2023-01-18T08:56:18.651Z,15
2023-01-18T09:00:10.493Z,20
2023-01-18T09:00:51.471Z,20
2023-01-18T09:01:32.099Z,20
2023-01-18T09:04:56.103Z,20
2023-01-18T09:05:36.955Z,20
2023-01-18T09:06:17.701Z,20
2023-01-18T09:06:58.674Z,20
2023-01-18T09:07:39.522Z,20
2023-01-18T09:08:20.221Z,15
2023-01-18T09:11:46.094Z,20
2023-01-18T09:12:26.957Z,20
2023-01-18T09:13:07.614Z,20
2023-01-18T09:14:00.084Z,20
2023-01-18T09:14:29.340Z,20
2023-01-18T09:15:10.635Z,20
2023-01-18T09:20:30.127Z,25
2023-01-18T09:21:10.067Z,25
2023-01-18T09:21:50.674Z,25
2023-01-18T09:22:32.100Z,25
2023-01-18T09:24:59.919Z,25
2023-01-18T09:25:40.680Z,25
2023-01-18T09:26:21.206Z,25
2023-01-18T09:30:25.209Z,25
2023-01-18T09:31:05.763Z,25
2023-01-18T09:31:46.300Z,25
2023-01-18T09:32:26.804Z,25
2023-01-18T09:33:07.318Z,25
2023-01-18T09:36:28.118Z,25
2023-01-18T09:37:08.698Z,25
2023-01-18T09:37:49.386Z,25
2023-01-18T09:41:49.041Z,25
2023-01-18T09:42:30.127Z,25
2023-01-18T09:43:10.726Z,25
2023-01-18T09:46:41.252Z,20
2023-01-18T09:47:21.699Z,20
2023-01-18T09:48:02.288Z,20
2023-01-18T09:50:46.181Z,20
2023-01-18T09:51:26.677Z,25
2023-01-18T09:52:07.195Z,25
2023-01-18T09:52:47.785Z,25
2023-01-18T09:53:28.349Z,25
2023-01-18T09:54:09.889Z,25
2023-01-18T10:01:36.808Z,25
2023-01-18T10:02:18.256Z,25
2023-01-18T10:02:58.820Z,25
2023-01-18T10:06:28.623Z,25
2023-01-18T10:07:08.990Z,25
2023-01-18T10:07:49.474Z,25
2023-01-18T10:11:52.950Z,25
2023-01-18T10:12:34.247Z,25
2023-01-18T10:13:14.814Z,25
2023-01-18T10:13:55.326Z,25
2023-01-18T10:14:35.941Z,25
2023-01-18T10:15:16.489Z,25
2023-01-18T10:15:57.007Z,25
2023-01-18T10:16:37.609Z,25
2023-01-18T10:26:36.968Z,25
2023-01-18T10:27:17.675Z,25
2023-01-18T10:27:58.328Z,25
2023-01-18T10:32:42.036Z,25
2023-01-18T10:33:22.650Z,25
2023-01-18T10:34:03.198Z,25
2023-01-18T10:34:43.780Z,25
2023-01-18T10:35:24.369Z,25
2023-01-18T10:36:05.104Z,25
2023-01-18T10:36:45.646Z,25
2023-01-18T10:42:51.688Z,25
2023-01-18T10:43:32.227Z,25
2023-01-18T10:44:12.845Z,25
2023-01-18T10:44:53.411Z,25
2023-01-18T10:45:33.873Z,25
2023-01-18T10:46:14.420Z,25
2023-01-18T10:46:55.068Z,25
2023-01-18T10:48:16.192Z,25
2023-01-18T10:54:54.900Z,25
2023-01-18T10:55:35.452Z,25
2023-01-18T10:56:16.091Z,25
2023-01-18T10:58:59.483Z,25
2023-01-18T10:59:39.984Z,25
2023-01-18T11:00:20.548Z,25
2023-01-18T11:01:01.131Z,25
2023-01-18T11:01:41.620Z,25
2023-01-18T11:02:22.190Z,25
2023-01-18T11:03:03.307Z,25
2023-01-18T11:03:43.907Z,25
2023-01-18T11:04:24.503Z,30
2023-01-18T11:08:29.848Z,30
2023-01-18T11:09:10.386Z,30
2023-01-18T11:09:51.552Z,30
2023-01-18T11:10:32.243Z,30
2023-01-18T11:11:13.443Z,30
2023-01-18T11:11:54.037Z,30
2023-01-18T11:12:34.598Z,30
2023-01-18T11:17:56.048Z,30
2023-01-18T11:18:36.560Z,30
2023-01-18T11:19:18.122Z,30
2023-01-18T11:24:02.571Z,30
2023-01-18T11:24:43.948Z,35
2023-01-18T11:25:26.018Z,30
2023-01-18T11:26:05.954Z,30
2023-01-18T11:26:47.063Z,30
2023-01-18T11:31:35.784Z,35
2023-01-18T11:32:16.492Z,30
2023-01-18T11:32:57.704Z,30
2023-01-18T11:33:39.976Z,30
2023-01-18T11:39:05.591Z,30
2023-01-18T11:39:46.969Z,30
2023-01-18T11:40:28.537Z,30
2023-01-18T11:44:51.541Z,30
2023-01-18T11:45:32.919Z,30
2023-01-18T11:46:14.001Z,30
2023-01-18T11:49:49.465Z,30
2023-01-18T11:50:30.283Z,30
2023-01-18T11:51:10.805Z,25
2023-01-18T11:53:54.066Z,30
2023-01-18T12:32:53.002Z,30
2023-01-18T12:33:42.997Z,30
2023-01-18T12:34:14.001Z,30
2023-01-18T12:38:18.164Z,30
2023-01-18T12:38:58.729Z,30
2023-01-18T12:39:39.315Z,30
2023-01-18T12:40:19.864Z,30
2023-01-18T12:41:00.380Z,30
2023-01-18T12:41:40.949Z,30
2023-01-18T12:42:21.479Z,30
2023-01-18T12:43:02.008Z,30
2023-01-18T12:48:04.731Z,30
2023-01-18T12:48:45.845Z,30
2023-01-18T12:49:26.937Z,30
2023-01-18T12:50:49.011Z,30
2023-01-18T12:51:30.021Z,30
2023-01-18T12:52:18.772Z,30
2023-01-18T12:52:52.812Z,25
2023-01-18T12:53:33.847Z,25
2023-01-18T12:56:59.325Z,25
2023-01-18T12:57:40.477Z,25
2023-01-18T12:58:21.459Z,25
2023-01-18T12:59:02.404Z,25
2023-01-18T13:03:09.479Z,25
2023-01-18T13:03:50.476Z,25
2023-01-18T13:04:31.458Z,25
2023-01-18T13:05:12.545Z,25
2023-01-18T13:05:53.616Z,25
2023-01-18T13:09:18.884Z,25
2023-01-18T13:10:41.257Z,25
2023-01-18T13:11:22.284Z,25
2023-01-18T13:12:03.388Z,25
2023-01-18T13:18:42.559Z,25
2023-01-18T13:19:24.693Z,25
2023-01-18T13:20:03.516Z,25
2023-01-18T13:24:47.248Z,25
2023-01-18T13:26:08.496Z,25
2023-01-18T13:26:49.036Z,25
2023-01-18T13:27:29.645Z,25
2023-01-18T13:28:10.110Z,20
2023-01-18T13:28:50.649Z,20
2023-01-18T13:34:30.122Z,20
2023-01-18T13:35:19.872Z,20
2023-01-18T13:35:52.361Z,20
2023-01-18T13:39:07.854Z,20
2023-01-18T13:39:49.183Z,20
2023-01-18T13:40:29.808Z,20
2023-01-18T13:41:51.890Z,20
2023-01-18T13:42:32.459Z,20
2023-01-18T13:43:12.972Z,20
2023-01-18T13:43:53.589Z,20
2023-01-18T13:44:34.159Z,20
2023-01-18T13:45:14.719Z,20
2023-01-18T13:48:44.534Z,20
2023-01-18T13:49:36.552Z,20
2023-01-18T13:50:05.601Z,20
2023-01-18T13:54:49.592Z,20
2023-01-18T13:55:30.109Z,20
2023-01-18T13:56:10.681Z,15
2023-01-18T13:56:51.248Z,15
2023-01-18T13:57:32.532Z,15
2023-01-18T13:58:13.060Z,15
2023-01-18T13:58:53.616Z,15
2023-01-18T13:59:34.191Z,15
2023-01-18T14:02:59.912Z,15
2023-01-18T14:03:40.290Z,15
2023-01-18T14:04:20.884Z,15
2023-01-18T14:05:01.641Z,15
2023-01-18T14:05:42.196Z,15
2023-01-18T14:06:23.795Z,15
2023-01-18T14:15:27.993Z,15
2023-01-18T14:16:08.304Z,15
2023-01-18T14:16:48.771Z,15
2023-01-18T14:23:26.258Z,15
2023-01-18T14:24:06.801Z,15
2023-01-18T14:24:47.323Z,15
2023-01-18T14:29:31.265Z,15
2023-01-18T14:30:11.818Z,15
2023-01-18T14:30:52.324Z,15
2023-01-18T14:31:32.915Z,15
2023-01-18T14:32:13.307Z,15
2023-01-18T14:32:53.855Z,15
2023-01-18T14:33:34.344Z,15
2023-01-18T14:34:15.028Z,15
2023-01-18T14:34:55.506Z,15
2023-01-18T14:41:41.211Z,15
2023-01-18T14:42:21.742Z,15
2023-01-18T14:43:02.431Z,15
2023-01-18T14:43:42.829Z,15
2023-01-18T14:44:23.423Z,15
2023-01-18T14:45:04.141Z,15
2023-01-18T14:45:44.565Z,15
2023-01-18T14:46:25.138Z,15
2023-01-18T14:47:13.785Z,15
2023-01-18T14:54:23.911Z,15
2023-01-18T14:55:04.512Z,15
2023-01-18T14:55:44.996Z,15
2023-01-18T14:58:28.848Z,20
2023-01-18T14:59:09.355Z,15
2023-01-18T14:59:49.884Z,20
2023-01-18T15:00:30.445Z,25
2023-01-18T15:01:51.598Z,25
2023-01-18T15:02:31.999Z,25
2023-01-18T15:03:12.523Z,15
2023-01-18T15:03:53.105Z,10
2023-01-18T15:08:38.637Z,35
2023-01-18T15:09:19.490Z,35
2023-01-18T15:10:00.142Z,35
2023-01-18T15:10:40.548Z,35
2023-01-18T15:11:21.257Z,35
2023-01-18T15:14:01.119Z,35
2023-01-18T15:14:42.236Z,30
2023-01-18T15:15:23.353Z,30
2023-01-18T15:16:45.671Z,25
2023-01-18T15:17:26.689Z,25
2023-01-18T15:18:07.748Z,25
2023-01-18T15:18:48.729Z,30
2023-01-18T15:19:29.951Z,30
2023-01-18T15:22:23.970Z,25
2023-01-18T15:23:04.487Z,25
2023-01-18T15:23:45.008Z,25
2023-01-18T15:28:42.077Z,20
2023-01-18T15:29:25.111Z,20
2023-01-18T15:30:03.315Z,20
2023-01-18T15:32:45.559Z,20
2023-01-18T15:33:26.092Z,20
2023-01-18T15:34:47.289Z,20
2023-01-18T15:35:27.795Z,20
2023-01-18T15:36:08.396Z,15
2023-01-18T15:36:48.922Z,15
2023-01-18T15:37:29.510Z,15
2023-01-18T15:38:10.007Z,15
2023-01-18T15:38:50.607Z,15
2023-01-18T15:41:44.015Z,10
2023-01-18T15:42:24.532Z,10
2023-01-18T15:43:05.040Z,10
2023-01-18T15:50:46.239Z,0
2023-01-18T15:51:26.700Z,0
2023-01-18T15:52:07.231Z,0
2023-01-18T15:52:47.743Z,0
2023-01-18T15:53:28.258Z,0
2023-01-18T15:54:08.788Z,0
2023-01-18T15:54:49.398Z,0
2023-01-18T15:55:29.961Z,0
2023-01-18T15:56:10.473Z,0
2023-01-18T15:56:51.157Z,0
2023-01-18T15:57:31.543Z,0
2023-01-18T16:06:17.353Z,0
2023-01-18T16:06:57.927Z,0
2023-01-18T16:07:39.189Z,0
2023-01-18T16:13:51.531Z,0
2023-01-18T16:14:31.921Z,0
2023-01-18T16:15:12.441Z,0
2023-01-18T16:19:56.232Z,0
2023-01-18T16:20:36.749Z,0
2023-01-18T16:21:17.299Z,0
2023-01-18T16:21:57.796Z,0
2023-01-18T16:22:38.321Z,0
2023-01-18T16:23:18.811Z,0
2023-01-18T16:23:59.329Z,0
2023-01-18T16:24:39.925Z,0
2023-01-18T16:25:20.499Z,0
2023-01-18T16:26:00.980Z,0
2023-01-18T16:32:46.008Z,0
2023-01-18T16:33:26.527Z,0
2023-01-18T16:34:07.072Z,0
2023-01-18T16:34:47.590Z,0
2023-01-18T16:35:28.081Z,0
2023-01-18T16:36:08.612Z,0
2023-01-18T16:36:49.075Z,0
2023-01-18T16:37:29.551Z,0
2023-01-18T16:38:10.051Z,0
2023-01-18T16:38:50.605Z,0
2023-01-18T16:46:16.174Z,0
2023-01-18T16:46:56.762Z,0
2023-01-18T16:47:37.227Z,0
2023-01-18T16:48:17.768Z,0
2023-01-18T16:48:58.245Z,0
2023-01-18T16:49:38.809Z,0
2023-01-18T16:50:19.325Z,0
2023-01-18T16:51:40.311Z,0
2023-01-18T16:52:20.890Z,0
2023-01-18T17:00:38.474Z,0
2023-01-18T17:01:19.008Z,0
2023-01-18T17:01:59.617Z,0
2023-01-18T17:06:03.293Z,0
2023-01-18T17:06:43.766Z,0
2023-01-18T17:07:24.292Z,0
2023-01-18T17:08:05.299Z,0
2023-01-18T17:08:45.837Z,0
2023-01-18T17:09:27.010Z,0
2023-01-18T17:10:06.824Z,0
2023-01-18T17:10:47.315Z,0
2023-01-18T17:11:27.816Z,0
2023-01-18T17:17:33.042Z,0
2023-01-18T17:18:13.510Z,0
2023-01-18T17:18:54.014Z,0
2023-01-18T17:19:34.478Z,0
2023-01-18T17:20:14.966Z,0
2023-01-18T17:21:35.988Z,0
2023-01-18T17:22:16.467Z,0
2023-01-18T17:22:57.258Z,0
2023-01-18T17:23:37.528Z,0
2023-01-18T17:24:18.066Z,0
2023-01-18T17:32:30.941Z,0
2023-01-18T17:33:11.406Z,0
2023-01-18T17:33:51.883Z,0
2023-01-18T17:39:15.873Z,0
2023-01-18T17:40:11.081Z,0
2023-01-18T17:40:40.270Z,0
2023-01-18T17:41:22.829Z,0
2023-01-18T17:41:57.956Z,0
2023-01-18T17:42:38.505Z,0
2023-01-18T17:43:28.658Z,0
2023-01-18T17:43:59.535Z,0
2023-01-18T17:44:40.071Z,0
2023-01-18T17:45:20.607Z,0
2023-01-18T17:52:05.694Z,0
2023-01-18T17:52:46.173Z,0
2023-01-18T18:34:42.756Z,0
2023-01-18T18:35:25.708Z,0
2023-01-18T18:36:03.700Z,0
2023-01-18T18:41:27.714Z,0
2023-01-18T18:42:08.184Z,0
2023-01-18T18:43:00.547Z,0
2023-01-18T18:43:29.147Z,0
2023-01-18T18:44:09.665Z,0
2023-01-18T18:44:50.142Z,0
2023-01-18T18:45:30.671Z,0
2023-01-18T18:46:11.235Z,0
2023-01-18T18:46:51.690Z,0
2023-01-18T18:47:32.193Z,0
2023-01-18T18:54:58.512Z,0
2023-01-18T18:55:39.039Z,0
2023-01-18T18:56:19.506Z,0
2023-01-18T18:56:59.973Z,0
2023-01-18T18:57:40.468Z,0
2023-01-18T18:58:20.951Z,0
2023-01-18T18:59:01.453Z,0
2023-01-18T18:59:41.927Z,0
2023-01-18T19:00:22.470Z,0
2023-01-18T19:06:27.670Z,0
2023-01-18T19:07:08.114Z,0
2023-01-18T19:07:49.872Z,0
2023-01-18T19:08:29.111Z,0
2023-01-18T19:09:09.594Z,0
2023-01-18T19:09:50.105Z,0
2023-01-18T19:10:30.617Z,0
2023-01-18T19:11:11.110Z,0
2023-01-18T19:11:55.256Z,0
2023-01-18T19:12:32.106Z,0
2023-01-18T19:19:57.622Z,0
2023-01-18T19:20:38.113Z,0
2023-01-18T19:21:18.675Z,0
2023-01-18T19:21:59.132Z,0
2023-01-18T19:22:39.624Z,0
2023-01-18T19:23:20.119Z,0
2023-01-18T19:24:00.619Z,0
2023-01-18T19:24:41.170Z,0
2023-01-18T19:25:21.689Z,0
2023-01-18T19:33:27.618Z,0
2023-01-18T19:34:08.090Z,0
2023-01-18T19:34:48.657Z,0
2023-01-18T19:35:29.109Z,0
2023-01-18T19:36:09.578Z,0
2023-01-18T19:36:50.126Z,0
2023-01-18T19:37:30.609Z,0
2023-01-18T19:38:11.171Z,0
2023-01-18T19:38:57.789Z,0
2023-01-18T19:39:32.148Z,0
2023-01-18T19:46:57.579Z,0
2023-01-18T19:47:38.049Z,0
2023-01-18T19:48:18.560Z,0
2023-01-18T19:48:59.070Z,0
2023-01-18T19:49:39.501Z,0
2023-01-18T19:50:19.976Z,0
2023-01-18T19:51:02.336Z,0
2023-01-18T19:51:41.017Z,0
2023-01-18T19:52:21.559Z,0
2023-01-18T19:53:02.431Z,0
2023-01-18T20:00:27.628Z,0
2023-01-18T20:01:08.240Z,0
2023-01-18T20:01:48.816Z,0
2023-01-18T20:02:29.333Z,0
2023-01-18T20:03:09.684Z,0
2023-01-18T20:03:50.146Z,0
2023-01-18T20:04:30.668Z,0
2023-01-18T20:05:11.122Z,0
2023-01-18T20:05:51.708Z,0
2023-01-18T20:06:32.220Z,0
2023-01-18T20:13:57.763Z,0
2023-01-18T20:14:41.359Z,0
2023-01-18T20:15:18.778Z,0
2023-01-18T20:15:59.271Z,0
2023-01-18T20:16:39.803Z,0
2023-01-18T20:17:20.242Z,0
2023-01-18T20:18:00.724Z,0
2023-01-18T20:18:41.230Z,0
2023-01-18T20:19:21.712Z,0
2023-01-18T20:20:02.240Z,0
2023-01-18T20:27:27.741Z,0
2023-01-18T20:28:08.198Z,0
2023-01-18T20:28:48.698Z,0
2023-01-18T20:29:29.259Z,0
2023-01-18T20:30:09.673Z,0
2023-01-18T20:30:50.208Z,0
2023-01-18T20:32:18.718Z,0
2023-01-18T20:32:51.619Z,0
2023-01-18T20:33:32.079Z,0
2023-01-18T20:40:57.586Z,0
2023-01-18T20:41:38.072Z,0
2023-01-18T20:42:18.577Z,0
2023-01-18T20:42:59.359Z,0
2023-01-18T20:43:39.545Z,0
2023-01-18T20:44:20.074Z,0
2023-01-18T20:45:00.623Z,0
2023-01-18T20:45:41.159Z,0
2023-01-18T20:46:21.516Z,0
2023-01-18T20:47:02.068Z,0
2023-01-18T20:54:27.597Z,0
2023-01-18T20:55:07.988Z,0
2023-01-18T20:55:48.466Z,0
2023-01-18T20:56:29.943Z,0
2023-01-18T20:57:09.447Z,0
2023-01-18T20:57:49.930Z,0
2023-01-18T20:58:30.426Z,0
2023-01-18T20:59:10.928Z,0
2023-01-18T20:59:51.469Z,0
2023-01-18T21:00:31.892Z,0
2023-01-18T21:01:12.422Z,0
2023-01-18T21:08:37.743Z,0
2023-01-18T21:09:18.205Z,0
2023-01-18T21:09:58.715Z,0
2023-01-18T21:10:39.253Z,0
2023-01-18T21:11:19.708Z,0
2023-01-18T21:12:00.255Z,0
2023-01-18T21:12:40.749Z,0
2023-01-18T21:13:21.246Z,0
2023-01-18T21:14:01.727Z,0
2023-01-18T21:14:42.259Z,0
2023-01-18T21:23:00.882Z,0
2023-01-18T21:23:41.143Z,0
2023-01-18T21:24:21.615Z,0
2023-01-18T21:25:02.126Z,0
2023-01-18T21:29:05.091Z,0
2023-01-18T21:29:45.628Z,0
2023-01-18T21:30:26.135Z,0
2023-01-18T21:31:06.653Z,0
2023-01-18T21:31:47.226Z,0
2023-01-18T21:32:27.691Z,0
2023-01-18T21:33:08.155Z,0
2023-01-18T21:33:48.654Z,0
2023-01-18T21:34:29.145Z,0
2023-01-18T21:35:09.638Z,0
2023-01-18T21:37:27.864Z,0
2023-01-18T21:38:08.369Z,0
2023-01-18T21:38:48.929Z,0
2023-01-18T21:39:29.437Z,0
2023-01-18T21:44:12.981Z,0
2023-01-18T21:44:53.396Z,0
2023-01-18T21:45:33.903Z,0
2023-01-18T21:46:14.481Z,0
2023-01-18T21:46:54.873Z,0
2023-01-18T21:47:35.324Z,0
2023-01-18T21:48:15.829Z,0
2023-01-18T21:48:56.298Z,0
2023-01-18T21:50:18.580Z,0
2023-01-18T21:57:42.616Z,0
2023-01-18T21:58:23.102Z,0
2023-01-18T21:59:03.568Z,0
2023-01-18T21:59:45.442Z,0
2023-01-18T22:00:24.590Z,0
2023-01-18T22:01:05.248Z,0
2023-01-18T22:01:45.686Z,0
2023-01-18T22:03:06.601Z,0
2023-01-18T22:03:47.075Z,0
2023-01-18T22:04:27.555Z,0
2023-01-18T22:11:13.246Z,0
2023-01-18T22:11:53.002Z,0
2023-01-18T22:12:33.497Z,0
2023-01-18T22:13:13.985Z,0
2023-01-18T22:13:54.477Z,0
2023-01-18T22:14:34.961Z,0
2023-01-18T22:15:15.478Z,0
2023-01-18T22:15:55.979Z,0
2023-01-18T22:16:36.501Z,0
2023-01-18T22:17:16.976Z,0
2023-01-18T22:17:57.453Z,0
2023-01-18T22:25:22.819Z,0
2023-01-18T22:26:03.311Z,0
2023-01-18T22:26:43.827Z,0
2023-01-18T22:27:24.341Z,0
2023-01-18T22:28:04.750Z,0
2023-01-18T22:28:45.259Z,0
2023-01-18T22:29:25.735Z,0
2023-01-18T22:30:06.241Z,0
2023-01-18T22:30:46.755Z,0
2023-01-18T22:31:27.239Z,0
2023-01-18T22:38:52.562Z,0
2023-01-18T22:39:33.048Z,0
2023-01-18T22:40:54.064Z,0
2023-01-18T22:41:34.566Z,0
2023-01-18T22:42:15.095Z,0
2023-01-18T22:42:55.598Z,0
2023-01-18T22:43:36.122Z,0
2023-01-18T22:44:16.628Z,0
2023-01-18T22:44:57.124Z,0
2023-01-18T22:52:33.956Z,0
2023-01-18T22:53:14.293Z,0
2023-01-18T22:53:55.396Z,0
2023-01-18T22:57:58.731Z,0
2023-01-18T22:58:38.946Z,0
2023-01-18T23:02:18.051Z,0
2023-01-18T23:02:58.491Z,0
2023-01-18T23:03:38.967Z,0
2023-01-18T23:09:02.796Z,0
2023-01-18T23:09:43.297Z,0
2023-01-18T23:10:23.770Z,0
2023-01-18T23:11:04.276Z,0
2023-01-18T23:11:44.797Z,0
2023-01-18T23:12:25.316Z,0
2023-01-18T23:13:05.731Z,0
2023-01-18T23:13:46.254Z,0
2023-01-18T23:14:26.772Z,0
2023-01-18T23:15:07.239Z,0
2023-01-18T23:22:32.688Z,0
2023-01-18T23:23:13.140Z,0
2023-01-18T23:23:53.663Z,0
2023-01-18T23:24:34.127Z,0
2023-01-18T23:25:14.620Z,0
2023-01-18T23:25:55.064Z,0
2023-01-18T23:26:35.563Z,0
2023-01-18T23:27:16.072Z,0
2023-01-18T23:28:37.009Z,0
2023-01-18T23:29:17.499Z,0
2023-01-18T23:36:42.746Z,0
2023-01-18T23:37:23.216Z,0
2023-01-18T23:38:03.681Z,0
2023-01-18T23:38:44.161Z,0
2023-01-18T23:39:24.669Z,0
2023-01-18T23:40:05.132Z,0